sensor_id;sensor_type;location;lat;lon;timestamp;temperature;humidity
5218;DHT22;26539;51.064;6.346;2023-04-09T00:00:10;9.50;99.90
5218;DHT22;26539;51.064;6.346;2023-04-09T00:02:36;9.50;99.90
5218;DHT22;26539;51.064;6.346;2023-04-09T00:05:01;9.40;1.00
5218;DHT22;26539;51.064;6.346;2023-04-09T00:07:27;9.30;1.00
5218;DHT22;26539;51.064;6.346;2023-04-09T00:09:52;9.30;1.00
5218;DHT22;26539;51.064;6.346;2023-04-09T00:12:18;9.30;99.90
5218;DHT22;26539;51.064;6.346;2023-04-09T00:14:46;9.30;99.90
5218;DHT22;26539;51.064;6.346;2023-04-09T00:17:12;9.20;99.90
5218;DHT22;26539;51.064;6.346;2023-04-09T00:19:37;9.20;99.90
5218;DHT22;26539;51.064;6.346;2023-04-09T00:22:03;9.20;99.90
5218;DHT22;26539;51.064;6.346;2023-04-09T00:24:28;9.20;99.90
5218;DHT22;26539;51.064;6.346;2023-04-09T00:26:54;9.20;99.90
5218;DHT22;26539;51.064;6.346;2023-04-09T00:29:19;9.20;99.90
5218;DHT22;26539;51.064;6.346;2023-04-09T00:31:45;9.20;99.90
5218;DHT22;26539;51.064;6.346;2023-04-09T00:34:13;9.20;99.90
5218;DHT22;26539;51.064;6.346;2023-04-09T00:36:38;9.20;99.90
5218;DHT22;26539;51.064;6.346;2023-04-09T00:39:04;9.20;99.90
5218;DHT22;26539;51.064;6.346;2023-04-09T00:41:30;9.20;99.90
5218;DHT22;26539;51.064;6.346;2023-04-09T00:43:55;9.20;1.00
5218;DHT22;26539;51.064;6.346;2023-04-09T00:46:21;9.20;1.00
5218;DHT22;26539;51.064;6.346;2023-04-09T00:48:47;9.20;1.00
5218;DHT22;26539;51.064;6.346;2023-04-09T00:51:12;9.10;4.00
5218;DHT22;26539;51.064;6.346;2023-04-09T00:53:38;9.10;99.90
5218;DHT22;26539;51.064;6.346;2023-04-09T00:56:04;9.10;99.90
5218;DHT22;26539;51.064;6.346;2023-04-09T00:58:30;9.10;99.90
5218;DHT22;26539;51.064;6.346;2023-04-09T01:00:55;9.10;99.90
5218;DHT22;26539;51.064;6.346;2023-04-09T01:03:21;9.10;99.90
5218;DHT22;26539;51.064;6.346;2023-04-09T01:06:07;9.10;99.90
5218;DHT22;26539;51.064;6.346;2023-04-09T01:16:34;8.80;99.90
5218;DHT22;26539;51.064;6.346;2023-04-09T01:19:09;8.70;99.90
5218;DHT22;26539;51.064;6.346;2023-04-09T01:21:37;8.70;1.00
5218;DHT22;26539;51.064;6.346;2023-04-09T01:24:20;8.70;1.00
5218;DHT22;26539;51.064;6.346;2023-04-09T01:26:59;8.70;1.00
5218;DHT22;26539;51.064;6.346;2023-04-09T01:29:30;8.70;1.00
5218;DHT22;26539;51.064;6.346;2023-04-09T01:31:58;8.70;2.00
5218;DHT22;26539;51.064;6.346;2023-04-09T01:34:26;8.70;5.20
5218;DHT22;26539;51.064;6.346;2023-04-09T01:36:55;8.60;1.00
5218;DHT22;26539;51.064;6.346;2023-04-09T01:39:22;8.60;1.00
5218;DHT22;26539;51.064;6.346;2023-04-09T01:41:49;8.50;24.30
5218;DHT22;26539;51.064;6.346;2023-04-09T01:44:16;8.50;99.90
5218;DHT22;26539;51.064;6.346;2023-04-09T01:46:42;8.50;1.00
5218;DHT22;26539;51.064;6.346;2023-04-09T01:49:10;8.50;1.00
5218;DHT22;26539;51.064;6.346;2023-04-09T01:51:36;8.40;1.00
5218;DHT22;26539;51.064;6.346;2023-04-09T01:54:02;8.40;99.90
5218;DHT22;26539;51.064;6.346;2023-04-09T01:56:39;8.30;1.00
5218;DHT22;26539;51.064;6.346;2023-04-09T01:59:04;8.30;1.00
5218;DHT22;26539;51.064;6.346;2023-04-09T02:01:38;8.20;1.00
5218;DHT22;26539;51.064;6.346;2023-04-09T02:04:13;8.30;99.90
5218;DHT22;26539;51.064;6.346;2023-04-09T02:06:44;8.20;99.90
5218;DHT22;26539;51.064;6.346;2023-04-09T02:09:11;8.30;99.90
5218;DHT22;26539;51.064;6.346;2023-04-09T02:11:40;8.20;99.90
5218;DHT22;26539;51.064;6.346;2023-04-09T02:14:07;8.10;99.90
5218;DHT22;26539;51.064;6.346;2023-04-09T02:16:33;8.10;1.00
5218;DHT22;26539;51.064;6.346;2023-04-09T02:19:00;8.00;1.00
5218;DHT22;26539;51.064;6.346;2023-04-09T02:21:27;7.90;41.40
5218;DHT22;26539;51.064;6.346;2023-04-09T02:23:53;7.90;1.00
5218;DHT22;26539;51.064;6.346;2023-04-09T02:26:20;7.90;99.90
5218;DHT22;26539;51.064;6.346;2023-04-09T02:28:45;7.90;99.90
5218;DHT22;26539;51.064;6.346;2023-04-09T02:31:11;7.90;99.10
5218;DHT22;26539;51.064;6.346;2023-04-09T02:33:36;7.90;62.70
5218;DHT22;26539;51.064;6.346;2023-04-09T02:36:02;7.90;99.90
5218;DHT22;26539;51.064;6.346;2023-04-09T02:38:28;7.80;99.90
5218;DHT22;26539;51.064;6.346;2023-04-09T02:40:53;7.80;99.90
5218;DHT22;26539;51.064;6.346;2023-04-09T02:43:19;7.70;99.90
5218;DHT22;26539;51.064;6.346;2023-04-09T02:45:44;7.70;1.00
5218;DHT22;26539;51.064;6.346;2023-04-09T02:48:10;7.60;1.00
5218;DHT22;26539;51.064;6.346;2023-04-09T02:50:35;7.60;1.00
5218;DHT22;26539;51.064;6.346;2023-04-09T02:53:01;7.50;42.20
5218;DHT22;26539;51.064;6.346;2023-04-09T02:55:27;7.50;99.90
5218;DHT22;26539;51.064;6.346;2023-04-09T02:57:53;7.40;99.90
5218;DHT22;26539;51.064;6.346;2023-04-09T03:00:18;7.40;99.90
5218;DHT22;26539;51.064;6.346;2023-04-09T03:02:44;7.50;99.90
5218;DHT22;26539;51.064;6.346;2023-04-09T03:05:09;7.50;99.90
5218;DHT22;26539;51.064;6.346;2023-04-09T03:07:35;7.50;99.90
5218;DHT22;26539;51.064;6.346;2023-04-09T03:10:00;7.50;57.60
5218;DHT22;26539;51.064;6.346;2023-04-09T03:12:26;7.50;15.90
5218;DHT22;26539;51.064;6.346;2023-04-09T03:14:51;7.50;12.50
5218;DHT22;26539;51.064;6.346;2023-04-09T03:17:17;7.50;1.00
5218;DHT22;26539;51.064;6.346;2023-04-09T03:19:45;7.40;1.00
5218;DHT22;26539;51.064;6.346;2023-04-09T03:22:11;7.40;1.00
5218;DHT22;26539;51.064;6.346;2023-04-09T03:24:36;7.40;5.10
5218;DHT22;26539;51.064;6.346;2023-04-09T03:27:02;7.30;49.70
5218;DHT22;26539;51.064;6.346;2023-04-09T03:29:27;7.30;99.90
5218;DHT22;26539;51.064;6.346;2023-04-09T03:31:53;7.30;99.90
5218;DHT22;26539;51.064;6.346;2023-04-09T03:34:18;7.30;99.90
5218;DHT22;26539;51.064;6.346;2023-04-09T03:36:44;7.30;99.90
5218;DHT22;26539;51.064;6.346;2023-04-09T03:39:09;7.30;99.90
5218;DHT22;26539;51.064;6.346;2023-04-09T03:41:35;7.20;99.90
5218;DHT22;26539;51.064;6.346;2023-04-09T03:44:00;7.20;99.90
5218;DHT22;26539;51.064;6.346;2023-04-09T03:46:26;7.20;99.90
5218;DHT22;26539;51.064;6.346;2023-04-09T03:48:51;7.20;99.90
5218;DHT22;26539;51.064;6.346;2023-04-09T03:51:17;7.20;99.90
5218;DHT22;26539;51.064;6.346;2023-04-09T03:53:43;7.20;99.90
5218;DHT22;26539;51.064;6.346;2023-04-09T03:56:09;7.20;99.90
5218;DHT22;26539;51.064;6.346;2023-04-09T03:58:35;7.10;99.90
5218;DHT22;26539;51.064;6.346;2023-04-09T04:01:01;7.10;99.90
5218;DHT22;26539;51.064;6.346;2023-04-09T04:03:27;7.10;99.90
5218;DHT22;26539;51.064;6.346;2023-04-09T04:05:52;7.10;99.90
5218;DHT22;26539;51.064;6.346;2023-04-09T04:08:18;7.10;99.90
5218;DHT22;26539;51.064;6.346;2023-04-09T04:10:43;7.00;99.90
5218;DHT22;26539;51.064;6.346;2023-04-09T04:13:09;7.00;99.90
5218;DHT22;26539;51.064;6.346;2023-04-09T04:15:39;6.90;99.90
5218;DHT22;26539;51.064;6.346;2023-04-09T04:18:05;6.90;99.90
5218;DHT22;26539;51.064;6.346;2023-04-09T04:20:34;6.90;99.90
5218;DHT22;26539;51.064;6.346;2023-04-09T04:22:59;6.90;99.90
5218;DHT22;26539;51.064;6.346;2023-04-09T04:25:25;6.90;99.90
5218;DHT22;26539;51.064;6.346;2023-04-09T04:27:50;6.80;1.00
5218;DHT22;26539;51.064;6.346;2023-04-09T04:30:16;6.80;1.00
5218;DHT22;26539;51.064;6.346;2023-04-09T04:32:41;6.80;1.00
5218;DHT22;26539;51.064;6.346;2023-04-09T04:35:07;6.80;1.00
5218;DHT22;26539;51.064;6.346;2023-04-09T04:37:33;6.90;99.90
5218;DHT22;26539;51.064;6.346;2023-04-09T04:40:02;6.90;99.90
5218;DHT22;26539;51.064;6.346;2023-04-09T04:42:28;6.90;99.90
5218;DHT22;26539;51.064;6.346;2023-04-09T04:44:54;6.90;99.90
5218;DHT22;26539;51.064;6.346;2023-04-09T04:47:19;6.90;99.90
5218;DHT22;26539;51.064;6.346;2023-04-09T04:49:45;6.90;99.90
5218;DHT22;26539;51.064;6.346;2023-04-09T04:52:10;7.00;99.90
5218;DHT22;26539;51.064;6.346;2023-04-09T04:54:36;6.90;99.90
5218;DHT22;26539;51.064;6.346;2023-04-09T04:57:01;6.90;99.90
5218;DHT22;26539;51.064;6.346;2023-04-09T04:59:27;6.90;99.90
5218;DHT22;26539;51.064;6.346;2023-04-09T05:01:52;6.90;99.90
5218;DHT22;26539;51.064;6.346;2023-04-09T05:04:18;6.80;49.30
5218;DHT22;26539;51.064;6.346;2023-04-09T05:06:43;6.80;15.70
5218;DHT22;26539;51.064;6.346;2023-04-09T05:09:09;6.80;1.00
5218;DHT22;26539;51.064;6.346;2023-04-09T05:11:34;6.70;1.00
5218;DHT22;26539;51.064;6.346;2023-04-09T05:14:00;6.80;1.00
5218;DHT22;26539;51.064;6.346;2023-04-09T05:16:25;6.80;99.90
5218;DHT22;26539;51.064;6.346;2023-04-09T05:18:51;6.80;99.90
5218;DHT22;26539;51.064;6.346;2023-04-09T05:21:16;6.90;99.90
5218;DHT22;26539;51.064;6.346;2023-04-09T05:23:42;7.00;99.90
5218;DHT22;26539;51.064;6.346;2023-04-09T05:26:07;7.10;99.90
5218;DHT22;26539;51.064;6.346;2023-04-09T05:28:33;7.20;99.90
5218;DHT22;26539;51.064;6.346;2023-04-09T05:30:59;7.30;99.90
5218;DHT22;26539;51.064;6.346;2023-04-09T05:33:24;7.40;99.90
5218;DHT22;26539;51.064;6.346;2023-04-09T05:35:50;7.50;99.90
5218;DHT22;26539;51.064;6.346;2023-04-09T05:38:15;7.70;82.20
5218;DHT22;26539;51.064;6.346;2023-04-09T05:40:41;7.80;26.10
5218;DHT22;26539;51.064;6.346;2023-04-09T05:43:08;8.00;1.00
5218;DHT22;26539;51.064;6.346;2023-04-09T05:45:34;8.40;1.00
5218;DHT22;26539;51.064;6.346;2023-04-09T05:48:00;11.10;99.90
5218;DHT22;26539;51.064;6.346;2023-04-09T05:50:26;13.40;99.90
5218;DHT22;26539;51.064;6.346;2023-04-09T05:52:51;15.60;1.00
5218;DHT22;26539;51.064;6.346;2023-04-09T05:55:17;17.50;99.90
5218;DHT22;26539;51.064;6.346;2023-04-09T05:57:42;19.10;99.90
5218;DHT22;26539;51.064;6.346;2023-04-09T06:00:10;20.60;99.90
5218;DHT22;26539;51.064;6.346;2023-04-09T06:02:35;22.90;99.90
5218;DHT22;26539;51.064;6.346;2023-04-09T06:05:01;25.10;99.90
5218;DHT22;26539;51.064;6.346;2023-04-09T06:07:27;27.10;99.90
5218;DHT22;26539;51.064;6.346;2023-04-09T06:09:56;28.60;99.90
5218;DHT22;26539;51.064;6.346;2023-04-09T06:12:24;29.80;99.90
5218;DHT22;26539;51.064;6.346;2023-04-09T06:14:50;30.70;99.90
5218;DHT22;26539;51.064;6.346;2023-04-09T06:17:15;31.30;99.90
5218;DHT22;26539;51.064;6.346;2023-04-09T06:19:43;31.90;99.90
5218;DHT22;26539;51.064;6.346;2023-04-09T06:22:09;32.60;99.90
5218;DHT22;26539;51.064;6.346;2023-04-09T06:24:35;33.10;99.90
5218;DHT22;26539;51.064;6.346;2023-04-09T06:27:01;33.70;99.90
5218;DHT22;26539;51.064;6.346;2023-04-09T06:29:26;34.50;99.90
5218;DHT22;26539;51.064;6.346;2023-04-09T06:31:52;35.30;99.90
5218;DHT22;26539;51.064;6.346;2023-04-09T06:34:18;35.80;99.90
5218;DHT22;26539;51.064;6.346;2023-04-09T06:36:44;36.50;99.90
5218;DHT22;26539;51.064;6.346;2023-04-09T06:39:09;37.60;99.90
5218;DHT22;26539;51.064;6.346;2023-04-09T06:41:35;38.50;99.90
5218;DHT22;26539;51.064;6.346;2023-04-09T06:44:01;38.70;99.90
5218;DHT22;26539;51.064;6.346;2023-04-09T06:46:29;38.80;99.90
5218;DHT22;26539;51.064;6.346;2023-04-09T06:48:55;39.10;99.90
5218;DHT22;26539;51.064;6.346;2023-04-09T06:51:20;39.30;99.90
5218;DHT22;26539;51.064;6.346;2023-04-09T06:53:46;39.50;99.90
5218;DHT22;26539;51.064;6.346;2023-04-09T06:56:12;39.90;99.90
5218;DHT22;26539;51.064;6.346;2023-04-09T06:58:43;40.20;99.90
5218;DHT22;26539;51.064;6.346;2023-04-09T07:01:08;40.30;99.90
5218;DHT22;26539;51.064;6.346;2023-04-09T07:03:34;40.50;99.90
5218;DHT22;26539;51.064;6.346;2023-04-09T07:05:59;40.70;99.90
5218;DHT22;26539;51.064;6.346;2023-04-09T07:08:25;40.50;99.90
5218;DHT22;26539;51.064;6.346;2023-04-09T07:10:51;40.70;99.90
5218;DHT22;26539;51.064;6.346;2023-04-09T07:13:21;40.90;99.90
5218;DHT22;26539;51.064;6.346;2023-04-09T07:15:54;40.80;99.90
5218;DHT22;26539;51.064;6.346;2023-04-09T07:18:22;40.40;99.90
5218;DHT22;26539;51.064;6.346;2023-04-09T07:20:47;40.40;99.90
5218;DHT22;26539;51.064;6.346;2023-04-09T07:23:13;40.50;99.90
5218;DHT22;26539;51.064;6.346;2023-04-09T07:25:38;40.10;99.90
5218;DHT22;26539;51.064;6.346;2023-04-09T07:28:07;40.50;99.90
5218;DHT22;26539;51.064;6.346;2023-04-09T07:30:33;40.90;99.90
5218;DHT22;26539;51.064;6.346;2023-04-09T07:32:59;40.90;99.90
5218;DHT22;26539;51.064;6.346;2023-04-09T07:35:29;40.70;99.90
5218;DHT22;26539;51.064;6.346;2023-04-09T07:37:59;40.90;99.90
5218;DHT22;26539;51.064;6.346;2023-04-09T07:40:24;41.60;99.90
5218;DHT22;26539;51.064;6.346;2023-04-09T07:42:50;42.10;99.90
5218;DHT22;26539;51.064;6.346;2023-04-09T07:45:15;41.80;99.90
5218;DHT22;26539;51.064;6.346;2023-04-09T07:47:41;41.60;99.90
5218;DHT22;26539;51.064;6.346;2023-04-09T07:50:07;41.40;99.90
5218;DHT22;26539;51.064;6.346;2023-04-09T07:52:33;41.40;99.90
5218;DHT22;26539;51.064;6.346;2023-04-09T07:54:58;41.50;99.90
5218;DHT22;26539;51.064;6.346;2023-04-09T07:57:24;41.30;99.90
5218;DHT22;26539;51.064;6.346;2023-04-09T07:59:52;41.50;99.90
5218;DHT22;26539;51.064;6.346;2023-04-09T08:02:17;42.00;99.90
5218;DHT22;26539;51.064;6.346;2023-04-09T08:04:43;42.50;99.90
5218;DHT22;26539;51.064;6.346;2023-04-09T08:07:09;42.30;99.90
5218;DHT22;26539;51.064;6.346;2023-04-09T08:09:35;41.80;99.90
5218;DHT22;26539;51.064;6.346;2023-04-09T08:12:43;42.10;99.90
5218;DHT22;26539;51.064;6.346;2023-04-09T08:15:14;42.20;99.90
5218;DHT22;26539;51.064;6.346;2023-04-09T08:17:46;42.30;99.90
5218;DHT22;26539;51.064;6.346;2023-04-09T08:20:47;41.90;99.90
5218;DHT22;26539;51.064;6.346;2023-04-09T09:46:46;36.90;94.70
5218;DHT22;26539;51.064;6.346;2023-04-09T12:19:55;29.30;81.70
5218;DHT22;26539;51.064;6.346;2023-04-09T12:25:55;29.90;85.00
5218;DHT22;26539;51.064;6.346;2023-04-09T12:28:24;30.40;87.20
5218;DHT22;26539;51.064;6.346;2023-04-09T12:30:51;30.70;89.20
5218;DHT22;26539;51.064;6.346;2023-04-09T12:33:20;30.70;89.70
5218;DHT22;26539;51.064;6.346;2023-04-09T12:35:48;30.70;89.60
5218;DHT22;26539;51.064;6.346;2023-04-09T12:38:16;30.80;89.30
5218;DHT22;26539;51.064;6.346;2023-04-09T12:40:41;30.50;87.50
5218;DHT22;26539;51.064;6.346;2023-04-09T12:43:07;30.50;87.60
5218;DHT22;26539;51.064;6.346;2023-04-09T12:45:32;29.80;84.60
5218;DHT22;26539;51.064;6.346;2023-04-09T12:48:00;29.30;82.30
5218;DHT22;26539;51.064;6.346;2023-04-09T12:50:26;28.90;80.70
5218;DHT22;26539;51.064;6.346;2023-04-09T12:52:52;28.30;77.00
5218;DHT22;26539;51.064;6.346;2023-04-09T12:55:18;28.10;77.50
5218;DHT22;26539;51.064;6.346;2023-04-09T12:58:08;28.10;78.70
5218;DHT22;26539;51.064;6.346;2023-04-09T13:00:41;27.90;78.50
5218;DHT22;26539;51.064;6.346;2023-04-09T13:03:09;27.70;77.30
5218;DHT22;26539;51.064;6.346;2023-04-09T13:05:37;27.60;77.70
5218;DHT22;26539;51.064;6.346;2023-04-09T13:08:03;27.30;77.70
5218;DHT22;26539;51.064;6.346;2023-04-09T13:10:29;27.30;77.80
5218;DHT22;26539;51.064;6.346;2023-04-09T13:12:57;27.30;78.10
5218;DHT22;26539;51.064;6.346;2023-04-09T13:15:23;27.50;79.70
5218;DHT22;26539;51.064;6.346;2023-04-09T13:17:48;27.30;80.00
5218;DHT22;26539;51.064;6.346;2023-04-09T13:20:17;27.10;80.00
5218;DHT22;26539;51.064;6.346;2023-04-09T13:22:45;26.90;79.80
5218;DHT22;26539;51.064;6.346;2023-04-09T13:25:15;26.70;92.80
5218;DHT22;26539;51.064;6.346;2023-04-09T13:27:43;26.70;79.70
5218;DHT22;26539;51.064;6.346;2023-04-09T13:30:09;26.50;79.30
5218;DHT22;26539;51.064;6.346;2023-04-09T13:32:34;26.50;79.00
5218;DHT22;26539;51.064;6.346;2023-04-09T13:35:00;26.30;78.40
5218;DHT22;26539;51.064;6.346;2023-04-09T13:37:26;26.30;81.00
5218;DHT22;26539;51.064;6.346;2023-04-09T13:39:51;26.30;81.60
5218;DHT22;26539;51.064;6.346;2023-04-09T13:42:19;26.00;80.30
5218;DHT22;26539;51.064;6.346;2023-04-09T13:44:47;26.00;80.30
5218;DHT22;26539;51.064;6.346;2023-04-09T13:47:21;26.20;80.70
5218;DHT22;26539;51.064;6.346;2023-04-09T13:49:48;26.50;83.90
5218;DHT22;26539;51.064;6.346;2023-04-09T13:52:17;26.80;86.00
5218;DHT22;26539;51.064;6.346;2023-04-09T13:54:43;27.10;87.60
5218;DHT22;26539;51.064;6.346;2023-04-09T13:57:08;26.80;87.30
5218;DHT22;26539;51.064;6.346;2023-04-09T13:59:35;26.60;86.40
5218;DHT22;26539;51.064;6.346;2023-04-09T14:02:10;26.00;83.60
5218;DHT22;26539;51.064;6.346;2023-04-09T14:04:36;25.50;82.10
5218;DHT22;26539;51.064;6.346;2023-04-09T14:07:04;25.00;80.20
5218;DHT22;26539;51.064;6.346;2023-04-09T14:09:32;24.40;78.10
5218;DHT22;26539;51.064;6.346;2023-04-09T14:11:58;23.90;76.60
5218;DHT22;26539;51.064;6.346;2023-04-09T14:14:26;23.70;75.00
5218;DHT22;26539;51.064;6.346;2023-04-09T14:16:51;23.50;75.50
5218;DHT22;26539;51.064;6.346;2023-04-09T14:19:20;23.40;77.20
5218;DHT22;26539;51.064;6.346;2023-04-09T14:21:47;23.10;76.90
5218;DHT22;26539;51.064;6.346;2023-04-09T14:24:13;22.80;76.70
5218;DHT22;26539;51.064;6.346;2023-04-09T14:26:41;22.80;77.60
5218;DHT22;26539;51.064;6.346;2023-04-09T14:29:06;22.70;77.90
5218;DHT22;26539;51.064;6.346;2023-04-09T14:31:32;22.80;78.40
5218;DHT22;26539;51.064;6.346;2023-04-09T14:33:57;22.80;81.90
5218;DHT22;26539;51.064;6.346;2023-04-09T14:36:23;22.90;81.90
5218;DHT22;26539;51.064;6.346;2023-04-09T14:38:49;22.70;80.60
5218;DHT22;26539;51.064;6.346;2023-04-09T14:41:15;22.60;81.50
5218;DHT22;26539;51.064;6.346;2023-04-09T14:43:41;22.80;82.70
5218;DHT22;26539;51.064;6.346;2023-04-09T14:46:06;22.70;83.30
5218;DHT22;26539;51.064;6.346;2023-04-09T14:48:36;22.50;82.50
5218;DHT22;26539;51.064;6.346;2023-04-09T14:51:01;22.00;80.30
5218;DHT22;26539;51.064;6.346;2023-04-09T14:53:27;21.60;78.20
5218;DHT22;26539;51.064;6.346;2023-04-09T14:55:52;21.40;78.50
5218;DHT22;26539;51.064;6.346;2023-04-09T14:58:20;21.30;78.80
5218;DHT22;26539;51.064;6.346;2023-04-09T15:00:51;21.40;79.70
5218;DHT22;26539;51.064;6.346;2023-04-09T15:03:16;21.70;82.20
5218;DHT22;26539;51.064;6.346;2023-04-09T15:05:42;21.40;80.80
5218;DHT22;26539;51.064;6.346;2023-04-09T15:08:07;21.20;81.10
5218;DHT22;26539;51.064;6.346;2023-04-09T15:10:35;21.30;84.00
5218;DHT22;26539;51.064;6.346;2023-04-09T15:13:00;21.20;83.50
5218;DHT22;26539;51.064;6.346;2023-04-09T15:15:26;21.10;83.40
5218;DHT22;26539;51.064;6.346;2023-04-09T15:17:52;20.70;81.80
5218;DHT22;26539;51.064;6.346;2023-04-09T15:20:17;20.50;83.20
5218;DHT22;26539;51.064;6.346;2023-04-09T15:22:43;20.30;82.60
5218;DHT22;26539;51.064;6.346;2023-04-09T15:25:09;20.10;80.80
5218;DHT22;26539;51.064;6.346;2023-04-09T15:27:34;20.00;81.50
5218;DHT22;26539;51.064;6.346;2023-04-09T15:30:00;19.80;81.50
5218;DHT22;26539;51.064;6.346;2023-04-09T15:32:25;19.70;82.10
5218;DHT22;26539;51.064;6.346;2023-04-09T15:34:52;19.60;82.10
5218;DHT22;26539;51.064;6.346;2023-04-09T15:37:19;19.60;83.50
5218;DHT22;26539;51.064;6.346;2023-04-09T15:39:44;19.70;84.80
5218;DHT22;26539;51.064;6.346;2023-04-09T15:42:10;19.80;86.50
5218;DHT22;26539;51.064;6.346;2023-04-09T15:44:36;19.70;85.80
5218;DHT22;26539;51.064;6.346;2023-04-09T15:47:03;19.60;86.70
5218;DHT22;26539;51.064;6.346;2023-04-09T15:49:28;19.50;86.40
5218;DHT22;26539;51.064;6.346;2023-04-09T15:51:54;19.30;85.80
5218;DHT22;26539;51.064;6.346;2023-04-09T15:54:20;19.20;86.10
5218;DHT22;26539;51.064;6.346;2023-04-09T15:56:45;19.10;86.50
5218;DHT22;26539;51.064;6.346;2023-04-09T15:59:11;19.00;96.90
5218;DHT22;26539;51.064;6.346;2023-04-09T16:01:36;19.00;87.60
5218;DHT22;26539;51.064;6.346;2023-04-09T16:04:03;18.90;88.50
5218;DHT22;26539;51.064;6.346;2023-04-09T16:06:28;18.90;89.50
5218;DHT22;26539;51.064;6.346;2023-04-09T16:08:54;18.90;90.10
5218;DHT22;26539;51.064;6.346;2023-04-09T16:11:21;18.90;90.00
5218;DHT22;26539;51.064;6.346;2023-04-09T16:13:46;18.90;90.60
5218;DHT22;26539;51.064;6.346;2023-04-09T16:16:12;18.90;90.70
5218;DHT22;26539;51.064;6.346;2023-04-09T16:18:37;18.80;90.80
5218;DHT22;26539;51.064;6.346;2023-04-09T16:21:03;18.70;91.10
5218;DHT22;26539;51.064;6.346;2023-04-09T16:23:28;18.70;91.50
5218;DHT22;26539;51.064;6.346;2023-04-09T16:25:54;18.60;91.50
5218;DHT22;26539;51.064;6.346;2023-04-09T16:28:20;18.50;92.30
5218;DHT22;26539;51.064;6.346;2023-04-09T16:30:47;18.40;91.60
5218;DHT22;26539;51.064;6.346;2023-04-09T16:33:13;18.40;91.90
5218;DHT22;26539;51.064;6.346;2023-04-09T16:35:39;18.40;91.70
5218;DHT22;26539;51.064;6.346;2023-04-09T16:38:08;18.20;91.40
5218;DHT22;26539;51.064;6.346;2023-04-09T16:40:36;18.10;91.40
5218;DHT22;26539;51.064;6.346;2023-04-09T16:43:02;18.00;91.40
5218;DHT22;26539;51.064;6.346;2023-04-09T16:45:27;18.00;91.80
5218;DHT22;26539;51.064;6.346;2023-04-09T16:47:53;17.90;91.90
5218;DHT22;26539;51.064;6.346;2023-04-09T16:50:22;17.80;99.90
5218;DHT22;26539;51.064;6.346;2023-04-09T16:53:14;17.70;92.20
5218;DHT22;26539;51.064;6.346;2023-04-09T16:56:29;17.60;92.50
5218;DHT22;26539;51.064;6.346;2023-04-09T16:59:17;17.60;93.50
5218;DHT22;26539;51.064;6.346;2023-04-09T17:05:22;17.60;93.90
5218;DHT22;26539;51.064;6.346;2023-04-09T17:08:08;17.50;94.40
5218;DHT22;26539;51.064;6.346;2023-04-09T17:10:37;17.40;94.10
5218;DHT22;26539;51.064;6.346;2023-04-09T17:13:03;17.30;94.20
5218;DHT22;26539;51.064;6.346;2023-04-09T17:15:31;17.20;94.50
5218;DHT22;26539;51.064;6.346;2023-04-09T17:17:56;17.10;95.20
5218;DHT22;26539;51.064;6.346;2023-04-09T17:20:22;17.10;96.20
5218;DHT22;26539;51.064;6.346;2023-04-09T17:22:49;16.90;95.50
5218;DHT22;26539;51.064;6.346;2023-04-09T17:25:15;16.80;99.90
5218;DHT22;26539;51.064;6.346;2023-04-09T17:27:41;16.70;95.80
5218;DHT22;26539;51.064;6.346;2023-04-09T17:30:10;16.60;96.10
5218;DHT22;26539;51.064;6.346;2023-04-09T17:32:37;16.60;96.40
5218;DHT22;26539;51.064;6.346;2023-04-09T17:35:04;16.50;96.40
5218;DHT22;26539;51.064;6.346;2023-04-09T17:37:32;16.40;96.50
5218;DHT22;26539;51.064;6.346;2023-04-09T17:39:58;16.20;96.60
5218;DHT22;26539;51.064;6.346;2023-04-09T17:42:24;16.20;96.90
5218;DHT22;26539;51.064;6.346;2023-04-09T17:44:49;16.10;97.20
5218;DHT22;26539;51.064;6.346;2023-04-09T17:47:16;16.10;97.40
5218;DHT22;26539;51.064;6.346;2023-04-09T17:49:42;15.90;97.90
5218;DHT22;26539;51.064;6.346;2023-04-09T17:52:08;15.80;97.90
5218;DHT22;26539;51.064;6.346;2023-04-09T17:54:34;15.70;98.20
5218;DHT22;26539;51.064;6.346;2023-04-09T17:57:00;15.60;98.30
5218;DHT22;26539;51.064;6.346;2023-04-09T17:59:26;15.50;99.00
5218;DHT22;26539;51.064;6.346;2023-04-09T18:01:52;15.50;99.40
5218;DHT22;26539;51.064;6.346;2023-04-09T18:04:20;15.40;99.30
5218;DHT22;26539;51.064;6.346;2023-04-09T18:06:46;15.20;99.30
5218;DHT22;26539;51.064;6.346;2023-04-09T18:09:12;15.10;99.30
5218;DHT22;26539;51.064;6.346;2023-04-09T18:11:38;15.00;99.30
5218;DHT22;26539;51.064;6.346;2023-04-09T18:14:03;14.90;99.50
5218;DHT22;26539;51.064;6.346;2023-04-09T18:16:33;14.70;99.90
5218;DHT22;26539;51.064;6.346;2023-04-09T18:19:01;14.70;99.80
5218;DHT22;26539;51.064;6.346;2023-04-09T18:21:27;14.50;99.50
5218;DHT22;26539;51.064;6.346;2023-04-09T18:23:55;14.40;99.90
5218;DHT22;26539;51.064;6.346;2023-04-09T18:26:20;14.40;99.90
5218;DHT22;26539;51.064;6.346;2023-04-09T18:28:46;14.20;99.90
5218;DHT22;26539;51.064;6.346;2023-04-09T18:31:13;14.10;99.90
5218;DHT22;26539;51.064;6.346;2023-04-09T18:33:39;14.10;99.90
5218;DHT22;26539;51.064;6.346;2023-04-09T18:36:05;14.00;99.90
5218;DHT22;26539;51.064;6.346;2023-04-09T18:38:30;13.90;99.90
5218;DHT22;26539;51.064;6.346;2023-04-09T18:40:56;13.80;99.90
5218;DHT22;26539;51.064;6.346;2023-04-09T18:43:22;13.70;99.90
5218;DHT22;26539;51.064;6.346;2023-04-09T18:45:54;13.70;99.90
5218;DHT22;26539;51.064;6.346;2023-04-09T18:48:20;13.60;99.90
5218;DHT22;26539;51.064;6.346;2023-04-09T18:50:48;13.50;99.90
5218;DHT22;26539;51.064;6.346;2023-04-09T18:53:14;13.50;99.90
5218;DHT22;26539;51.064;6.346;2023-04-09T18:55:39;13.40;99.90
5218;DHT22;26539;51.064;6.346;2023-04-09T18:58:13;13.40;99.90
5218;DHT22;26539;51.064;6.346;2023-04-09T19:00:40;13.30;99.90
5218;DHT22;26539;51.064;6.346;2023-04-09T19:03:08;13.20;99.90
5218;DHT22;26539;51.064;6.346;2023-04-09T19:05:40;13.10;99.90
5218;DHT22;26539;51.064;6.346;2023-04-09T19:08:08;13.10;99.90
5218;DHT22;26539;51.064;6.346;2023-04-09T19:10:34;13.00;99.90
5218;DHT22;26539;51.064;6.346;2023-04-09T19:13:00;13.00;99.90
5218;DHT22;26539;51.064;6.346;2023-04-09T19:15:26;12.90;99.90
5218;DHT22;26539;51.064;6.346;2023-04-09T19:17:53;12.90;99.90
5218;DHT22;26539;51.064;6.346;2023-04-09T19:20:18;12.80;99.90
5218;DHT22;26539;51.064;6.346;2023-04-09T19:22:51;12.80;99.90
5218;DHT22;26539;51.064;6.346;2023-04-09T19:25:29;12.80;99.90
5218;DHT22;26539;51.064;6.346;2023-04-09T19:27:54;12.70;99.90
5218;DHT22;26539;51.064;6.346;2023-04-09T19:30:21;12.60;99.90
5218;DHT22;26539;51.064;6.346;2023-04-09T19:32:57;12.60;99.90
5218;DHT22;26539;51.064;6.346;2023-04-09T19:35:25;12.50;99.90
5218;DHT22;26539;51.064;6.346;2023-04-09T19:37:51;12.50;99.90
5218;DHT22;26539;51.064;6.346;2023-04-09T19:40:19;12.50;99.90
5218;DHT22;26539;51.064;6.346;2023-04-09T19:42:50;12.50;99.90
5218;DHT22;26539;51.064;6.346;2023-04-09T19:45:21;12.40;99.90
5218;DHT22;26539;51.064;6.346;2023-04-09T19:47:55;12.40;99.90
5218;DHT22;26539;51.064;6.346;2023-04-09T19:50:22;12.30;99.90
5218;DHT22;26539;51.064;6.346;2023-04-09T19:52:48;12.30;99.90
5218;DHT22;26539;51.064;6.346;2023-04-09T19:55:16;12.20;99.90
5218;DHT22;26539;51.064;6.346;2023-04-09T19:57:42;12.20;99.90
5218;DHT22;26539;51.064;6.346;2023-04-09T20:00:09;12.10;99.90